Time;durP1;ratioP1;P1;durP2;ratioP2;P2;SDS_P1;SDS_P2;PMS_P1;PMS_P2;Temp;Humidity;BMP_temperature;BMP_pressure;BME280_temperature;BME280_humidity;BME280_pressure;Samples;Min_cycle;Max_cycle;Signal;HPM_P1;HPM_P2
2023/09/24 00:00:53;;;;;;;1.27;1.17;;;13.30;99.90;;;;;;5007576;28;20474;-71
2023/09/24 00:03:19;;;;;;;2.50;2.00;;;13.30;99.90;;;;;;5010095;28;20528;-72
2023/09/24 00:05:46;;;;;;;2.10;1.80;;;13.30;99.90;;;;;;4989410;28;20593;-71
2023/09/24 00:08:12;;;;;;;3.37;1.87;;;13.20;99.90;;;;;;4990413;28;20415;-72
2023/09/24 00:10:38;;;;;;;1.97;1.77;;;13.20;99.90;;;;;;5004874;28;20472;-72
2023/09/24 00:13:04;;;;;;;2.53;1.70;;;13.30;99.90;;;;;;5007470;28;20246;-71
2023/09/24 00:15:32;;;;;;;3.60;1.80;;;13.30;99.90;;;;;;5020804;28;20216;-71
2023/09/24 00:17:59;;;;;;;2.60;1.80;;;13.40;99.90;;;;;;5007617;28;20800;-72
2023/09/24 00:20:25;;;;;;;1.90;1.50;;;13.30;99.90;;;;;;5008632;28;21071;-71
2023/09/24 00:22:51;;;;;;;1.73;1.60;;;13.30;99.90;;;;;;5006331;28;20668;-71
2023/09/24 00:25:17;;;;;;;1.90;1.47;;;13.30;99.90;;;;;;5009440;28;20829;-71
2023/09/24 00:27:43;;;;;;;4.20;1.57;;;13.30;99.90;;;;;;5008557;28;20598;-71
2023/09/24 00:30:09;;;;;;;2.43;1.50;;;13.30;99.90;;;;;;5009400;28;20251;-71
2023/09/24 00:32:35;;;;;;;2.63;1.93;;;13.30;99.90;;;;;;4988711;28;21079;-70
2023/09/24 00:35:01;;;;;;;3.90;1.93;;;13.30;99.90;;;;;;5008808;28;20490;-72
2023/09/24 00:37:27;;;;;;;4.43;1.73;;;13.30;99.90;;;;;;5009146;28;21060;-72
2023/09/24 00:39:53;;;;;;;2.90;1.70;;;13.20;99.90;;;;;;5009743;28;20514;-71
2023/09/24 00:42:18;;;;;;;3.43;1.70;;;13.20;99.90;;;;;;4993685;28;20221;-71
2023/09/24 00:44:44;;;;;;;1.90;1.80;;;13.20;99.90;;;;;;5008574;28;20216;-70
2023/09/24 00:47:11;;;;;;;2.60;2.00;;;13.20;99.90;;;;;;4988234;28;20659;-72
2023/09/24 00:49:38;;;;;;;2.00;1.87;;;13.20;99.90;;;;;;5008593;28;20227;-71
2023/09/24 00:52:04;;;;;;;1.43;1.33;;;13.10;99.90;;;;;;5004964;28;20514;-71
2023/09/24 00:54:30;;;;;;;2.50;1.80;;;13.10;99.90;;;;;;5025023;28;20486;-72
2023/09/24 00:56:58;;;;;;;2.77;1.80;;;13.10;99.90;;;;;;4990951;28;20589;-70
2023/09/24 00:59:25;;;;;;;3.60;2.03;;;13.10;99.90;;;;;;5009290;28;20475;-74
2023/09/24 01:01:52;;;;;;;3.17;2.40;;;13.00;99.90;;;;;;5007553;28;20478;-72
2023/09/24 01:04:17;;;;;;;1.80;1.57;;;13.00;99.90;;;;;;5025151;28;20497;-71
2023/09/24 01:06:44;;;;;;;1.80;1.70;;;12.90;99.90;;;;;;5007770;28;20554;-71
2023/09/24 01:09:12;;;;;;;2.23;1.43;;;12.90;99.90;;;;;;4991654;28;20235;-73
2023/09/24 01:11:38;;;;;;;3.00;1.87;;;12.90;99.90;;;;;;5011309;28;20487;-71
2023/09/24 01:14:05;;;;;;;1.50;1.40;;;12.90;99.90;;;;;;4988149;28;20483;-72
2023/09/24 01:16:32;;;;;;;2.43;1.70;;;12.90;99.90;;;;;;4988463;28;20220;-71
2023/09/24 01:18:58;;;;;;;2.10;1.87;;;12.90;99.90;;;;;;5005909;28;20480;-72
2023/09/24 01:21:27;;;;;;;3.23;2.60;;;12.90;99.90;;;;;;5011812;28;21014;-72
2023/09/24 01:23:54;;;;;;;2.50;1.60;;;12.90;99.90;;;;;;5000561;28;20480;-72
2023/09/24 01:26:23;;;;;;;2.57;1.63;;;12.80;99.90;;;;;;5014349;28;20451;-72
2023/09/24 01:28:51;;;;;;;4.40;1.70;;;12.80;99.90;;;;;;4996594;28;20481;-71
2023/09/24 01:31:18;;;;;;;2.43;2.23;;;12.90;99.90;;;;;;5003752;28;20463;-72
2023/09/24 01:33:44;;;;;;;1.70;1.60;;;12.90;99.90;;;;;;5010501;28;20475;-72
2023/09/24 01:36:10;;;;;;;3.07;1.97;;;12.80;99.90;;;;;;4989524;28;20472;-72
2023/09/24 01:38:40;;;;;;;2.63;1.97;;;12.80;99.90;;;;;;4997528;28;20505;-71
2023/09/24 01:41:09;;;;;;;1.63;1.53;;;12.70;99.90;;;;;;4990723;28;20413;-71
2023/09/24 01:43:36;;;;;;;2.70;1.90;;;12.70;99.90;;;;;;4993457;28;21101;-70
2023/09/24 01:46:05;;;;;;;3.43;2.30;;;12.70;99.90;;;;;;5025248;28;20470;-71
2023/09/24 01:48:35;;;;;;;2.83;1.90;;;12.70;99.90;;;;;;5025267;28;20581;-73
2023/09/24 01:51:07;;;;;;;1.53;1.43;;;12.60;99.90;;;;;;5008319;28;20478;-71
2023/09/24 01:53:35;;;;;;;2.20;1.87;;;12.60;99.90;;;;;;5011527;28;20576;-72
2023/09/24 01:56:02;;;;;;;2.17;1.57;;;12.60;99.90;;;;;;4991275;28;21091;-71
2023/09/24 01:58:28;;;;;;;2.40;1.90;;;12.60;99.90;;;;;;5005516;28;20478;-71
2023/09/24 02:00:54;;;;;;;1.90;1.80;;;12.60;99.90;;;;;;4990699;28;20472;-70
2023/09/24 02:03:20;;;;;;;2.17;1.80;;;12.60;99.90;;;;;;4992664;28;20514;-72
2023/09/24 02:05:46;;;;;;;1.57;1.47;;;12.60;99.90;;;;;;5009295;28;20223;-71
2023/09/24 02:08:12;;;;;;;2.00;1.80;;;12.60;99.90;;;;;;4992486;28;20578;-71
2023/09/24 02:10:40;;;;;;;2.17;1.53;;;12.50;99.90;;;;;;4993676;28;20208;-71
2023/09/24 02:13:10;;;;;;;2.53;1.80;;;12.50;99.90;;;;;;5004391;28;20310;-72
2023/09/24 02:15:38;;;;;;;1.60;1.50;;;12.40;99.90;;;;;;5008829;28;21082;-71
2023/09/24 02:18:05;;;;;;;2.77;1.73;;;12.40;99.90;;;;;;5008764;28;20578;-71
2023/09/24 02:20:32;;;;;;;1.53;1.43;;;12.40;99.90;;;;;;5009448;28;20483;-72
2023/09/24 02:23:03;;;;;;;2.10;1.87;;;12.40;99.90;;;;;;5007213;28;20479;-70
2023/09/24 02:25:31;;;;;;;2.90;1.70;;;12.30;99.90;;;;;;5007968;28;20495;-71
2023/09/24 02:27:57;;;;;;;1.80;1.70;;;12.40;99.90;;;;;;5008197;28;20471;-71
2023/09/24 02:30:27;;;;;;;1.87;1.77;;;12.40;99.90;;;;;;4990903;28;21189;-71
2023/09/24 02:32:52;;;;;;;2.60;1.67;;;12.30;99.90;;;;;;5024260;28;20499;-72
2023/09/24 02:35:18;;;;;;;2.87;1.53;;;12.30;99.90;;;;;;5009181;28;20451;-72
2023/09/24 02:37:45;;;;;;;1.93;1.70;;;12.20;99.90;;;;;;5008014;28;20220;-72
2023/09/24 02:40:15;;;;;;;1.97;1.70;;;12.00;99.90;;;;;;5007269;28;20236;-72
2023/09/24 02:42:42;;;;;;;1.60;1.50;;;11.90;99.90;;;;;;4987204;28;20459;-71
2023/09/24 02:45:09;;;;;;;1.80;1.70;;;11.90;99.90;;;;;;4991334;28;20578;-71
2023/09/24 02:47:36;;;;;;;1.90;1.50;;;12.00;99.90;;;;;;4987994;28;20835;-70
2023/09/24 02:50:08;;;;;;;1.63;1.50;;;12.00;99.90;;;;;;5006854;28;20558;-69
2023/09/24 02:52:35;;;;;;;1.67;1.57;;;12.00;99.90;;;;;;4997002;28;20880;-72
2023/09/24 02:55:00;;;;;;;1.60;1.50;;;12.00;99.90;;;;;;5003673;28;20533;-73
2023/09/24 02:57:27;;;;;;;1.83;1.47;;;11.90;99.90;;;;;;5005519;28;20942;-72
2023/09/24 02:59:53;;;;;;;2.50;1.60;;;11.90;99.90;;;;;;5004973;28;20702;-70
2023/09/24 03:02:18;;;;;;;3.00;1.70;;;11.80;99.90;;;;;;5006442;28;20486;-72
2023/09/24 03:04:44;;;;;;;1.90;1.70;;;11.70;99.90;;;;;;5005569;28;20220;-70
2023/09/24 03:07:10;;;;;;;2.37;1.50;;;11.60;99.90;;;;;;4990216;28;20860;-70
2023/09/24 03:09:36;;;;;;;3.93;1.57;;;11.50;99.90;;;;;;4977862;28;20256;-70
2023/09/24 03:12:02;;;;;;;2.07;1.87;;;11.60;99.90;;;;;;4999681;28;20236;-72
2023/09/24 03:14:27;;;;;;;3.77;1.80;;;11.70;99.90;;;;;;5001037;28;20383;-70
2023/09/24 03:16:53;;;;;;;2.07;1.90;;;11.70;99.90;;;;;;5011027;28;20240;-72
2023/09/24 03:19:19;;;;;;;5.20;1.57;;;11.70;99.90;;;;;;5007213;28;20229;-72
2023/09/24 03:21:45;;;;;;;1.40;1.30;;;11.70;99.90;;;;;;4997816;28;20493;-73
2023/09/24 03:24:14;;;;;;;2.30;1.80;;;11.70;99.90;;;;;;4995437;28;20232;-73
2023/09/24 03:26:40;;;;;;;1.87;1.77;;;11.70;99.90;;;;;;5004872;28;20339;-72
2023/09/24 03:29:06;;;;;;;1.90;1.70;;;11.80;99.90;;;;;;5001892;28;20471;-72
2023/09/24 03:31:33;;;;;;;5.13;1.77;;;11.90;99.90;;;;;;5006370;28;20516;-71
2023/09/24 03:33:59;;;;;;;2.67;1.53;;;11.90;99.90;;;;;;5009402;28;20298;-71
2023/09/24 03:36:25;;;;;;;1.60;1.50;;;11.90;99.90;;;;;;5006342;28;20462;-72
2023/09/24 03:38:51;;;;;;;1.70;1.60;;;11.90;99.90;;;;;;5006630;28;20288;-70
2023/09/24 03:41:17;;;;;;;4.30;1.53;;;11.90;99.90;;;;;;5009311;28;20474;-71
2023/09/24 03:43:43;;;;;;;1.50;1.40;;;11.90;99.90;;;;;;5007817;28;20225;-72
2023/09/24 03:46:11;;;;;;;2.03;1.40;;;11.90;99.90;;;;;;5007237;28;20247;-71
2023/09/24 03:48:37;;;;;;;4.63;1.80;;;11.90;99.90;;;;;;4991011;28;20220;-70
2023/09/24 03:51:03;;;;;;;2.90;1.50;;;11.90;99.90;;;;;;5007490;28;20497;-71
2023/09/24 03:53:28;;;;;;;3.20;1.60;;;11.90;99.90;;;;;;5008202;28;20217;-72
2023/09/24 03:55:54;;;;;;;3.30;1.70;;;11.90;99.90;;;;;;5008493;28;20375;-72
2023/09/24 03:58:20;;;;;;;2.47;1.80;;;11.90;99.90;;;;;;5007993;28;20282;-70
2023/09/24 04:00:46;;;;;;;4.47;1.73;;;11.90;99.90;;;;;;5010534;28;20307;-71
2023/09/24 04:03:14;;;;;;;2.50;1.90;;;11.90;99.90;;;;;;5006920;28;20221;-69
2023/09/24 04:05:39;;;;;;;2.80;1.80;;;11.90;99.90;;;;;;5012409;28;20443;-72
2023/09/24 04:08:05;;;;;;;2.63;2.43;;;11.90;99.90;;;;;;5011445;28;20903;-70
2023/09/24 04:10:32;;;;;;;2.30;1.70;;;11.90;99.90;;;;;;5010414;28;20312;-72
2023/09/24 04:12:59;;;;;;;3.73;1.70;;;11.80;99.90;;;;;;5009232;28;20224;-73
2023/09/24 04:15:30;;;;;;;2.10;1.80;;;11.80;99.90;;;;;;5011481;28;20462;-72
2023/09/24 04:17:57;;;;;;;2.10;2.00;;;11.80;99.90;;;;;;5026989;28;21083;-72
2023/09/24 04:20:25;;;;;;;2.83;2.33;;;11.80;99.90;;;;;;5012294;28;20471;-72
2023/09/24 04:22:51;;;;;;;1.67;1.57;;;11.80;99.90;;;;;;5012882;28;21103;-71
2023/09/24 04:25:20;;;;;;;3.67;2.20;;;11.80;99.90;;;;;;5008608;28;20574;-72
2023/09/24 04:27:46;;;;;;;2.10;2.00;;;11.80;99.90;;;;;;5012133;28;20891;-71
2023/09/24 04:30:19;;;;;;;2.40;2.20;;;11.70;99.90;;;;;;5009438;28;20485;-72
2023/09/24 04:32:51;;;;;;;2.00;1.70;;;11.80;99.90;;;;;;5012735;28;20277;-73
2023/09/24 04:35:19;;;;;;;1.70;1.60;;;11.80;99.90;;;;;;5024397;28;20918;-71
2023/09/24 04:37:45;;;;;;;3.83;2.00;;;11.70;99.90;;;;;;5011050;28;21011;-70
2023/09/24 04:40:14;;;;;;;3.17;1.70;;;11.70;99.90;;;;;;5008769;28;20478;-72
2023/09/24 04:42:41;;;;;;;2.33;2.13;;;11.70;99.90;;;;;;5010402;28;20574;-70
2023/09/24 04:45:11;;;;;;;1.53;1.37;;;11.70;99.90;;;;;;5010116;28;20470;-71
2023/09/24 04:47:40;;;;;;;4.93;1.67;;;11.70;99.90;;;;;;5011068;28;20607;-72
2023/09/24 04:50:07;;;;;;;2.60;1.63;;;11.70;99.90;;;;;;5006797;28;20459;-72
2023/09/24 04:52:33;;;;;;;2.20;1.50;;;11.70;99.90;;;;;;5011529;28;20538;-71
2023/09/24 04:55:00;;;;;;;2.20;1.70;;;11.60;99.90;;;;;;5010466;28;20463;-70
2023/09/24 04:57:25;;;;;;;1.37;1.27;;;11.60;99.90;;;;;;5012101;28;20455;-70
2023/09/24 04:59:53;;;;;;;1.80;1.70;;;11.60;99.90;;;;;;5004676;28;20919;-72
2023/09/24 05:02:23;;;;;;;2.07;1.70;;;11.60;99.90;;;;;;5024022;28;20228;-72
2023/09/24 05:04:49;;;;;;;2.17;1.60;;;11.60;99.90;;;;;;5008822;28;20471;-71
2023/09/24 05:07:15;;;;;;;2.60;1.67;;;11.60;99.90;;;;;;5009089;28;21086;-72
2023/09/24 05:09:40;;;;;;;2.07;1.90;;;11.50;99.90;;;;;;5011510;28;20490;-72
2023/09/24 05:12:06;;;;;;;2.03;1.90;;;11.50;99.90;;;;;;5005222;28;20451;-72
2023/09/24 05:14:32;;;;;;;2.17;1.50;;;11.40;99.90;;;;;;5025689;28;20244;-70
2023/09/24 05:16:58;;;;;;;1.83;1.73;;;11.40;99.90;;;;;;5010228;28;20236;-70
2023/09/24 05:19:24;;;;;;;2.47;1.87;;;11.40;99.90;;;;;;5011338;28;20274;-72
2023/09/24 05:21:50;;;;;;;1.80;1.70;;;11.40;99.90;;;;;;5008900;28;20472;-70
2023/09/24 05:24:15;;;;;;;2.07;1.73;;;11.40;99.90;;;;;;4990344;28;20304;-71
2023/09/24 05:26:41;;;;;;;1.60;1.50;;;11.30;99.90;;;;;;5007520;28;20546;-71
2023/09/24 05:29:07;;;;;;;3.57;1.90;;;11.30;99.90;;;;;;5024730;28;20234;-71
2023/09/24 05:31:32;;;;;;;5.60;1.90;;;11.30;99.90;;;;;;5009248;28;20208;-72
2023/09/24 05:33:58;;;;;;;2.33;1.90;;;11.30;99.90;;;;;;5005938;28;20244;-72
2023/09/24 05:36:24;;;;;;;1.80;1.70;;;11.20;99.90;;;;;;5009565;28;20344;-70
2023/09/24 05:38:50;;;;;;;2.20;1.80;;;11.20;99.90;;;;;;4998411;28;20221;-71
2023/09/24 05:41:16;;;;;;;2.03;1.83;;;11.20;99.90;;;;;;5010239;28;20809;-69
2023/09/24 05:43:44;;;;;;;2.07;1.80;;;11.20;99.90;;;;;;5009436;28;20467;-71
2023/09/24 05:46:11;;;;;;;2.23;1.90;;;11.20;99.90;;;;;;5009947;28;20231;-71
2023/09/24 05:48:37;;;;;;;2.03;1.57;;;11.20;99.90;;;;;;5009341;28;20494;-71
2023/09/24 05:51:04;;;;;;;5.40;2.40;;;11.20;99.90;;;;;;5010987;28;20465;-70
2023/09/24 05:53:30;;;;;;;2.23;1.93;;;11.20;99.90;;;;;;5010167;28;20529;-72
2023/09/24 05:55:56;;;;;;;3.07;1.87;;;11.20;99.90;;;;;;5009607;28;20902;-72
2023/09/24 05:58:22;;;;;;;1.57;1.47;;;11.10;99.90;;;;;;5025584;28;20459;-69
2023/09/24 06:00:50;;;;;;;2.00;1.50;;;11.20;99.90;;;;;;5023632;28;20477;-71
2023/09/24 06:03:15;;;;;;;1.97;1.77;;;11.20;99.90;;;;;;5011109;28;20459;-70
2023/09/24 06:05:41;;;;;;;2.80;1.97;;;11.20;99.90;;;;;;5008670;28;20586;-72
2023/09/24 06:08:07;;;;;;;1.57;1.47;;;11.20;99.90;;;;;;5009309;28;20224;-71
2023/09/24 06:10:34;;;;;;;6.40;2.10;;;11.20;99.90;;;;;;5009582;28;20289;-71
2023/09/24 06:13:01;;;;;;;2.13;2.03;;;11.20;99.90;;;;;;5002683;28;20263;-71
2023/09/24 06:15:27;;;;;;;2.20;1.90;;;11.20;99.90;;;;;;5007017;28;20590;-72
2023/09/24 06:17:52;;;;;;;3.30;1.90;;;11.20;99.90;;;;;;5002791;28;20459;-72
2023/09/24 06:20:18;;;;;;;1.80;1.70;;;11.20;99.90;;;;;;5022404;28;20232;-71
2023/09/24 06:22:50;;;;;;;1.83;1.70;;;11.20;99.90;;;;;;5023125;28;20809;-71
2023/09/24 06:25:15;;;;;;;2.17;2.00;;;11.20;99.90;;;;;;5006414;28;20228;-72
2023/09/24 06:27:41;;;;;;;2.00;1.30;;;11.20;99.90;;;;;;5008749;28;20545;-72
2023/09/24 06:30:09;;;;;;;2.43;1.60;;;11.20;99.90;;;;;;5007882;28;20225;-72
2023/09/24 06:32:35;;;;;;;2.93;1.50;;;11.20;99.90;;;;;;5007890;28;20224;-71
2023/09/24 06:35:01;;;;;;;2.00;1.70;;;11.20;99.90;;;;;;5011931;28;20479;-71
2023/09/24 06:37:27;;;;;;;2.00;1.90;;;11.20;99.90;;;;;;5000446;28;20478;-71
2023/09/24 06:39:52;;;;;;;2.47;1.70;;;11.20;99.90;;;;;;5004512;28;20335;-71
2023/09/24 06:42:18;;;;;;;1.40;1.30;;;11.30;99.90;;;;;;5017126;28;20310;-71
2023/09/24 06:44:44;;;;;;;1.73;1.40;;;11.30;99.90;;;;;;5005676;28;20250;-71
2023/09/24 06:47:10;;;;;;;3.43;2.17;;;11.30;99.90;;;;;;5000948;28;20236;-72
2023/09/24 06:49:37;;;;;;;1.67;1.57;;;11.30;99.90;;;;;;5003697;28;20594;-72
2023/09/24 06:52:03;;;;;;;2.47;2.07;;;11.30;99.90;;;;;;5017150;28;20224;-71
2023/09/24 06:54:32;;;;;;;3.70;1.63;;;11.30;99.90;;;;;;5023351;28;20521;-72
2023/09/24 06:56:58;;;;;;;2.60;1.73;;;11.40;99.90;;;;;;5006014;28;20234;-72
2023/09/24 06:59:24;;;;;;;2.57;1.80;;;11.50;99.90;;;;;;4995007;28;20531;-71
2023/09/24 07:01:50;;;;;;;1.93;1.53;;;11.50;99.90;;;;;;5006500;28;20467;-72
2023/09/24 07:04:16;;;;;;;2.10;1.43;;;11.60;99.90;;;;;;5006232;28;21201;-71
2023/09/24 07:06:42;;;;;;;3.00;1.73;;;11.70;99.90;;;;;;5003902;28;20227;-72
2023/09/24 07:09:08;;;;;;;2.13;1.73;;;11.70;99.90;;;;;;5002289;28;20903;-71
2023/09/24 07:11:36;;;;;;;3.03;2.03;;;11.80;99.90;;;;;;4981937;28;20460;-72
2023/09/24 07:14:04;;;;;;;3.13;1.90;;;11.80;99.90;;;;;;5009796;28;20235;-74
2023/09/24 07:16:30;;;;;;;2.63;2.00;;;11.90;99.90;;;;;;5004090;28;21089;-72
2023/09/24 07:18:59;;;;;;;1.97;1.87;;;11.90;99.90;;;;;;5002611;28;20478;-72
2023/09/24 07:21:28;;;;;;;2.70;2.23;;;12.00;99.90;;;;;;5015253;28;20492;-70
2023/09/24 07:23:54;;;;;;;1.90;1.80;;;12.00;99.90;;;;;;5011996;28;20468;-72
2023/09/24 07:26:22;;;;;;;2.97;2.20;;;12.10;99.90;;;;;;5004486;28;20485;-72
2023/09/24 07:28:48;;;;;;;1.97;1.87;;;12.10;99.90;;;;;;5022574;28;20471;-71
2023/09/24 07:31:21;;;;;;;3.37;2.10;;;12.20;99.90;;;;;;5010069;28;20477;-70
2023/09/24 07:33:50;;;;;;;3.07;1.93;;;12.30;99.90;;;;;;5011606;28;20228;-72
2023/09/24 07:36:16;;;;;;;2.97;1.63;;;12.30;99.90;;;;;;5008832;28;20584;-71
2023/09/24 07:38:42;;;;;;;2.10;1.67;;;12.40;99.90;;;;;;5009151;28;21198;-73
2023/09/24 07:41:08;;;;;;;2.27;1.80;;;12.40;99.90;;;;;;5009508;28;20227;-71
2023/09/24 07:43:38;;;;;;;6.20;1.80;;;12.50;99.90;;;;;;5009811;28;20462;-72
2023/09/24 07:46:05;;;;;;;1.80;1.70;;;12.60;99.90;;;;;;5008550;28;21016;-72
2023/09/24 07:48:31;;;;;;;1.70;1.60;;;12.60;99.90;;;;;;5009830;28;20692;-73
2023/09/24 07:50:57;;;;;;;2.13;1.67;;;12.60;99.90;;;;;;5007393;28;20536;-71
2023/09/24 07:53:23;;;;;;;2.60;1.93;;;12.60;99.90;;;;;;5008658;28;20454;-70
2023/09/24 07:56:03;;;;;;;2.10;1.90;;;12.70;99.90;;;;;;4990192;28;21090;-71
2023/09/24 07:58:32;;;;;;;2.40;2.00;;;12.80;99.90;;;;;;5011728;28;20458;-72
2023/09/24 08:01:06;;;;;;;2.00;1.67;;;12.80;99.90;;;;;;5008424;28;20463;-72
2023/09/24 08:03:35;;;;;;;2.90;1.70;;;13.00;99.90;;;;;;5009080;28;21141;-71
2023/09/24 08:06:02;;;;;;;1.70;1.60;;;13.10;99.90;;;;;;5009963;28;20861;-71
2023/09/24 08:08:29;;;;;;;2.00;1.83;;;13.10;99.90;;;;;;5021542;28;20478;-72
2023/09/24 08:10:57;;;;;;;1.80;1.70;;;13.10;99.90;;;;;;5025868;28;20488;-72
2023/09/24 08:13:23;;;;;;;2.10;1.80;;;13.20;99.90;;;;;;5009866;28;20566;-71
2023/09/24 08:15:49;;;;;;;2.70;2.03;;;13.30;99.90;;;;;;5009165;28;21121;-72
2023/09/24 08:18:18;;;;;;;4.43;2.43;;;13.50;99.90;;;;;;5007387;28;20463;-71
2023/09/24 08:20:44;;;;;;;1.67;1.57;;;13.60;99.90;;;;;;5009564;28;20548;-72
2023/09/24 08:23:11;;;;;;;2.43;1.70;;;14.10;99.90;;;;;;5007979;28;20517;-73
2023/09/24 08:25:37;;;;;;;3.07;1.87;;;16.00;99.90;;;;;;4989590;28;20616;-73
2023/09/24 08:28:03;;;;;;;5.07;2.17;;;17.70;99.90;;;;;;5004701;28;20557;-72
2023/09/24 08:30:31;;;;;;;4.63;1.70;;;17.30;99.90;;;;;;5005498;28;20480;-72
2023/09/24 08:32:57;;;;;;;2.10;1.70;;;16.70;99.90;;;;;;5001346;28;20224;-72
2023/09/24 08:35:23;;;;;;;3.00;2.00;;;15.70;99.90;;;;;;5005669;28;20470;-74
2023/09/24 08:37:49;;;;;;;1.83;1.67;;;15.20;99.90;;;;;;5007629;28;20459;-73
2023/09/24 08:40:18;;;;;;;2.30;1.97;;;15.00;99.90;;;;;;5008870;28;20467;-72
2023/09/24 08:42:50;;;;;;;4.10;1.87;;;14.90;99.90;;;;;;5025442;28;20467;-72
2023/09/24 08:45:20;;;;;;;2.20;2.03;;;15.00;99.90;;;;;;5009703;28;20481;-72
2023/09/24 08:47:47;;;;;;;2.37;2.10;;;15.00;99.90;;;;;;5009472;28;21015;-72
2023/09/24 08:50:14;;;;;;;1.53;1.40;;;15.00;99.90;;;;;;5007956;28;20475;-71
2023/09/24 08:52:43;;;;;;;1.83;1.73;;;15.40;99.90;;;;;;5010229;28;20452;-71
2023/09/24 08:55:10;;;;;;;2.00;1.63;;;15.40;99.90;;;;;;5006773;28;21087;-73
2023/09/24 08:57:36;;;;;;;2.20;1.50;;;15.40;99.90;;;;;;5008382;28;20463;-72
2023/09/24 09:00:09;;;;;;;2.60;1.67;;;15.50;99.90;;;;;;5010132;28;20475;-72
2023/09/24 09:02:35;;;;;;;1.97;1.73;;;15.70;99.90;;;;;;5021605;28;20528;-72
2023/09/24 09:05:03;;;;;;;5.73;1.97;;;16.00;99.90;;;;;;5008722;28;20471;-72
2023/09/24 09:07:29;;;;;;;2.33;2.10;;;16.10;99.90;;;;;;5008816;28;20228;-72
2023/09/24 09:09:56;;;;;;;3.33;2.07;;;16.30;99.90;;;;;;5007143;28;20482;-71
2023/09/24 09:12:23;;;;;;;4.33;2.13;;;16.40;99.90;;;;;;5008707;28;20224;-73
2023/09/24 09:14:50;;;;;;;2.80;1.73;;;16.50;99.90;;;;;;5007685;28;20471;-73
2023/09/24 09:17:16;;;;;;;2.67;1.53;;;16.60;99.90;;;;;;5010240;28;20470;-72
2023/09/24 09:19:59;;;;;;;3.00;1.83;;;16.60;99.90;;;;;;5009138;28;20585;-72
2023/09/24 09:22:27;;;;;;;2.70;1.77;;;16.80;99.90;;;;;;5006927;28;20467;-73
2023/09/24 09:25:04;;;;;;;1.67;1.57;;;16.80;99.90;;;;;;5006234;28;20471;-73
2023/09/24 09:27:33;;;;;;;1.93;1.83;;;16.90;99.90;;;;;;5007479;28;21069;-72
2023/09/24 09:30:19;;;;;;;2.63;1.73;;;16.80;99.90;;;;;;5010021;28;20463;-73
2023/09/24 09:32:46;;;;;;;2.40;2.13;;;16.70;99.90;;;;;;5009717;28;20479;-73
2023/09/24 09:35:14;;;;;;;2.40;1.73;;;16.80;99.90;;;;;;5009879;28;20493;-71
2023/09/24 09:37:41;;;;;;;4.03;2.23;;;17.00;99.90;;;;;;5024848;28;20696;-71
2023/09/24 09:40:08;;;;;;;1.97;1.87;;;17.40;99.90;;;;;;5009230;28;20466;-71
2023/09/24 09:42:36;;;;;;;1.63;1.53;;;17.70;99.90;;;;;;5023201;28;20521;-71
2023/09/24 09:45:07;;;;;;;2.27;2.00;;;17.80;99.90;;;;;;5023956;28;20467;-72
2023/09/24 09:47:34;;;;;;;2.33;1.70;;;17.60;99.90;;;;;;5009083;28;20479;-71
2023/09/24 09:50:01;;;;;;;2.10;1.90;;;17.50;99.90;;;;;;5007066;28;20475;-73
2023/09/24 09:52:37;;;;;;;2.40;1.90;;;17.70;99.90;;;;;;5008681;28;20506;-72
2023/09/24 09:55:05;;;;;;;4.93;2.17;;;18.10;99.90;;;;;;5002643;28;20478;-72
2023/09/24 09:57:34;;;;;;;1.70;1.60;;;18.20;99.90;;;;;;5006341;28;20533;-71
2023/09/24 10:00:02;;;;;;;2.97;1.33;;;18.30;99.90;;;;;;5024447;28;20525;-72
2023/09/24 10:02:42;;;;;;;1.60;1.50;;;18.30;99.90;;;;;;5007642;28;20462;-73
2023/09/24 10:05:12;;;;;;;1.40;1.30;;;18.30;99.90;;;;;;5006815;28;20506;-73
2023/09/24 10:07:38;;;;;;;3.20;1.33;;;18.60;99.90;;;;;;5006756;28;21218;-74
2023/09/24 10:10:29;;;;;;;1.80;1.70;;;18.60;99.90;;;;;;5005445;28;20479;-73
2023/09/24 10:12:54;;;;;;;2.60;1.73;;;18.40;99.90;;;;;;5004265;28;20483;-73
2023/09/24 10:15:28;;;;;;;4.07;1.87;;;18.60;99.90;;;;;;5005241;28;20471;-74
2023/09/24 10:18:15;;;;;;;2.30;1.50;;;19.00;99.90;;;;;;4984421;28;20224;-74
2023/09/24 10:20:49;;;;;;;4.40;2.60;;;19.00;99.90;;;;;;5013624;28;21111;-74
2023/09/24 10:23:30;;;;;;;5.87;4.60;;;18.90;99.90;;;;;;5005101;28;21061;-73
2023/09/24 10:26:01;;;;;;;12.20;8.27;;;18.70;99.90;;;;;;5001271;28;21772;-72
2023/09/24 10:28:59;;;;;;;5.83;5.33;;;18.80;99.90;;;;;;5005023;28;20602;-74
2023/09/24 10:31:25;;;;;;;5.63;3.23;;;19.10;99.90;;;;;;4980707;28;20514;-74
2023/09/24 10:33:57;;;;;;;4.73;2.80;;;19.20;99.90;;;;;;5002342;28;20487;-74
2023/09/24 10:36:33;;;;;;;3.37;3.00;;;19.20;99.90;;;;;;5006858;28;20470;-73
2023/09/24 10:39:08;;;;;;;3.17;2.97;;;19.30;99.90;;;;;;5006986;28;20518;-74
2023/09/24 10:41:35;;;;;;;3.20;2.70;;;19.20;99.90;;;;;;5005601;28;21224;-73
2023/09/24 10:44:27;;;;;;;2.30;2.10;;;19.40;99.90;;;;;;5000407;28;20471;-73
2023/09/24 10:46:53;;;;;;;2.20;2.00;;;19.30;99.90;;;;;;5004741;28;20458;-72
2023/09/24 10:49:24;;;;;;;2.80;2.00;;;19.10;99.90;;;;;;5004203;28;20455;-71
2023/09/24 10:51:59;;;;;;;4.83;2.07;;;19.20;99.90;;;;;;5017281;28;21330;-72
2023/09/24 10:54:25;;;;;;;2.13;1.60;;;19.60;99.90;;;;;;5018530;28;20462;-72
2023/09/24 10:56:51;;;;;;;1.87;1.67;;;19.80;99.90;;;;;;5004740;28;20516;-73
2023/09/24 10:59:34;;;;;;;1.90;1.80;;;20.10;99.90;;;;;;5003591;28;20263;-72
2023/09/24 11:02:15;;;;;;;1.50;1.40;;;20.30;99.90;;;;;;5002040;28;20482;-72
2023/09/24 11:04:41;;;;;;;1.90;1.70;;;20.60;99.90;;;;;;5000164;28;20536;-72
2023/09/24 11:07:11;;;;;;;1.60;1.50;;;20.60;99.90;;;;;;5021135;28;20477;-72
2023/09/24 11:09:37;;;;;;;3.60;1.43;;;20.70;99.90;;;;;;5020851;28;20311;-73
2023/09/24 11:12:09;;;;;;;2.10;1.40;;;20.80;99.90;;;;;;5005123;28;20473;-72
2023/09/24 11:14:35;;;;;;;1.30;1.20;;;20.90;99.90;;;;;;5005088;28;20228;-73
2023/09/24 11:17:01;;;;;;;2.40;1.33;;;21.00;99.90;;;;;;5003386;28;20548;-72
2023/09/24 11:19:48;;;;;;;1.50;1.40;;;21.10;99.90;;;;;;5004463;28;20224;-72
2023/09/24 11:22:24;;;;;;;2.70;1.53;;;20.90;99.90;;;;;;5007173;28;20532;-71
2023/09/24 11:25:05;;;;;;;1.30;1.20;;;20.70;99.90;;;;;;5005652;28;20492;-73
2023/09/24 11:27:36;;;;;;;2.73;1.30;;;20.30;99.90;;;;;;5021375;28;20609;-73
2023/09/24 11:30:03;;;;;;;2.70;1.63;;;20.40;99.90;;;;;;5007529;28;20484;-73
2023/09/24 11:32:29;;;;;;;1.77;1.30;;;20.70;99.90;;;;;;5001710;28;20532;-73
2023/09/24 11:35:36;;;;;;;1.50;1.40;;;20.60;99.90;;;;;;5016062;28;21082;-73
2023/09/24 11:38:02;;;;;;;3.10;1.40;;;20.80;99.90;;;;;;4943808;28;21121;-71
2023/09/24 11:40:33;;;;;;;5.73;2.20;;;20.80;99.90;;;;;;4997765;28;21035;-71
2023/09/24 11:43:02;;;;;;;4.40;1.50;;;20.70;99.90;;;;;;5004508;28;20961;-73
2023/09/24 11:45:46;;;;;;;2.47;1.07;;;20.70;99.90;;;;;;5018740;28;20494;-73
2023/09/24 11:48:21;;;;;;;2.33;1.57;;;20.60;99.90;;;;;;5020231;28;20471;-72
2023/09/24 11:50:54;;;;;;;1.50;1.30;;;20.60;99.90;;;;;;5003423;28;20544;-73
2023/09/24 11:53:21;;;;;;;1.57;1.30;;;20.40;99.90;;;;;;5001485;28;20598;-72
2023/09/24 11:55:52;;;;;;;2.03;1.53;;;20.30;99.90;;;;;;5005107;28;20483;-73
2023/09/24 11:58:18;;;;;;;1.57;1.20;;;20.70;99.90;;;;;;5018607;28;20483;-73
2023/09/24 12:00:44;;;;;;;1.47;1.30;;;21.00;99.90;;;;;;5005874;28;20568;-73
2023/09/24 12:03:11;;;;;;;2.67;1.43;;;21.50;99.90;;;;;;5020613;28;20327;-73
2023/09/24 12:05:37;;;;;;;1.60;1.20;;;21.40;99.90;;;;;;5001992;28;20549;-73
2023/09/24 12:08:04;;;;;;;1.20;1.10;;;21.20;99.90;;;;;;5021723;28;20486;-73
2023/09/24 12:10:31;;;;;;;1.67;1.57;;;21.30;99.90;;;;;;5000291;28;20233;-72
2023/09/24 12:13:02;;;;;;;2.43;1.30;;;21.20;99.90;;;;;;5000948;28;21113;-73
2023/09/24 12:15:31;;;;;;;2.27;1.50;;;21.20;99.90;;;;;;5005519;28;20474;-73
2023/09/24 12:17:59;;;;;;;1.40;1.30;;;21.40;99.90;;;;;;5005618;28;20474;-73
2023/09/24 12:20:26;;;;;;;2.10;1.37;;;21.40;99.90;;;;;;5005116;28;21021;-72
2023/09/24 12:22:52;;;;;;;1.30;1.20;;;21.10;99.90;;;;;;5007580;28;21519;-73
2023/09/24 12:25:17;;;;;;;2.70;1.47;;;20.90;99.90;;;;;;5009087;28;20467;-73
2023/09/24 12:27:43;;;;;;;1.20;1.10;;;20.70;99.90;;;;;;5007257;28;20221;-73
2023/09/24 12:30:12;;;;;;;2.77;1.30;;;21.00;99.90;;;;;;5004666;28;20298;-72
2023/09/24 12:32:41;;;;;;;1.27;0.80;;;21.20;99.90;;;;;;5007247;28;20232;-74
2023/09/24 12:35:09;;;;;;;2.93;1.20;;;21.30;99.90;;;;;;5007351;28;20446;-73
2023/09/24 12:37:35;;;;;;;1.30;1.20;;;21.10;99.90;;;;;;5004945;28;20582;-73
2023/09/24 12:40:06;;;;;;;1.77;1.33;;;20.90;99.90;;;;;;5004500;28;20486;-73
2023/09/24 12:42:36;;;;;;;1.67;1.27;;;20.80;99.90;;;;;;5002864;28;20540;-74
2023/09/24 12:45:03;;;;;;;1.30;1.30;;;20.40;99.90;;;;;;5005118;28;20474;-72
2023/09/24 12:47:31;;;;;;;1.67;0.80;;;20.90;99.90;;;;;;5006637;28;20462;-73
2023/09/24 12:49:57;;;;;;;2.23;1.70;;;21.20;99.90;;;;;;5004367;28;20478;-73
2023/09/24 12:52:32;;;;;;;1.47;1.00;;;21.40;99.90;;;;;;5018011;28;20482;-73